Alexis, North Carolina
Current Conditions -  °F | °C
As of 5:15 AM on Tuesday 27 Jan 2015 (Local Time) from KIPJ Reporting Station
Clear Clear  
Wind Chill: 30°   Ceiling: Unl
Heat Index: 30°   Visibility: 10mi
Dew Point: 19°   Wind: 0mph
Humidity: 63%   Direction: NA
Pressure: 29.77"   Gusts: NA
Location:  35.4°N, 81.12°W
Report Text: KIPJ 271015Z AUTO 00000KT 10SM CLR M01/M07 A2977 RMK AO2 T10131075
Loading
Personal Weather Stations






























Interactive Weather Map New forecast layout! Learn more

10-Day Weather Forecast

Advertisements
Track Severe Weather on mobile